createdAt,value
2022-09-01T00:01:55.809Z,13.67
2022-09-01T00:04:45.199Z,13.61
2022-09-01T00:07:31.907Z,13.49
2022-09-01T00:10:18.443Z,13.36
2022-09-01T00:13:07.053Z,13.52
2022-09-01T00:15:54.479Z,13.36
2022-09-01T00:18:42.170Z,13.27
2022-09-01T00:21:34.254Z,13.41
2022-09-01T00:24:21.486Z,13.40
2022-09-01T00:27:08.075Z,12.92
2022-09-01T00:29:56.849Z,13.09
2022-09-01T00:32:46.622Z,13.01
2022-09-01T00:35:37.072Z,13.12
2022-09-01T00:38:24.325Z,13.00
2022-09-01T00:41:11.798Z,13.07
2022-09-01T00:44:12.090Z,13.08
2022-09-01T00:46:59.915Z,13.21
2022-09-01T00:49:49.442Z,13.02
2022-09-01T00:52:45.910Z,12.99
2022-09-01T00:55:34.558Z,13.06
2022-09-01T00:58:21.279Z,12.66
2022-09-01T01:01:10.204Z,13.08
2022-09-01T01:03:59.940Z,12.82
2022-09-01T01:07:01.713Z,12.84
2022-09-01T01:09:49.553Z,12.75
2022-09-01T01:12:40.294Z,12.71
2022-09-01T01:15:26.634Z,12.78
2022-09-01T01:18:14.559Z,12.85
2022-09-01T01:21:34.083Z,12.66
2022-09-01T01:24:27.061Z,12.86
2022-09-01T01:27:13.792Z,12.57
2022-09-01T01:30:02.258Z,12.72
2022-09-01T01:32:51.848Z,12.68
2022-09-01T01:35:38.402Z,12.62
2022-09-01T01:38:27.483Z,12.78
2022-09-01T01:41:17.590Z,12.77
2022-09-01T01:44:05.257Z,12.76
2022-09-01T01:46:54.578Z,12.75
2022-09-01T01:49:43.802Z,12.66
2022-09-01T01:52:30.933Z,12.64
2022-09-01T01:55:19.350Z,12.69
2022-09-01T01:58:08.080Z,12.68
2022-09-01T02:00:56.298Z,12.77
2022-09-01T02:03:43.174Z,12.61
2022-09-01T02:06:34.586Z,12.57
2022-09-01T02:09:23.253Z,12.48
2022-09-01T02:12:10.465Z,12.54
2022-09-01T02:15:00.441Z,12.38
2022-09-01T02:17:47.306Z,12.31
2022-09-01T02:20:33.750Z,12.30
2022-09-01T02:23:24.465Z,12.45
2022-09-01T02:26:17.024Z,12.49
2022-09-01T02:29:09.166Z,12.47
2022-09-01T02:32:00.070Z,12.21
2022-09-01T02:34:49.383Z,12.30
2022-09-01T02:37:39.325Z,12.26
2022-09-01T02:40:25.913Z,12.32
2022-09-01T02:43:14.895Z,12.36
2022-09-01T02:46:02.558Z,12.13
2022-09-01T02:48:51.410Z,12.07
2022-09-01T02:51:38.533Z,11.99
2022-09-01T02:54:25.730Z,12.03
2022-09-01T02:57:12.658Z,12.13
2022-09-01T02:59:59.173Z,12.17
2022-09-01T03:02:53.849Z,12.22
2022-09-01T03:05:40.138Z,11.99
2022-09-01T03:08:27.634Z,12.03
2022-09-01T03:11:14.338Z,11.91
2022-09-01T03:14:02.662Z,12.14
2022-09-01T03:16:49.424Z,11.83
2022-09-01T03:19:44.423Z,11.78
2022-09-01T03:22:31.234Z,11.82
2022-09-01T03:25:18.750Z,12.04
2022-09-01T03:28:09.606Z,12.04
2022-09-01T03:30:58.458Z,11.94
2022-09-01T03:33:46.119Z,11.91
2022-09-01T03:36:50.045Z,11.71
2022-09-01T03:39:41.646Z,11.78
2022-09-01T03:42:29.587Z,11.79
2022-09-01T03:45:20.355Z,11.80
2022-09-01T03:48:09.189Z,11.96
2022-09-01T03:51:02.569Z,11.97
2022-09-01T03:53:54.607Z,11.90
2022-09-01T03:56:43.017Z,11.85
2022-09-01T03:59:35.110Z,11.74
2022-09-01T04:02:22.942Z,11.56
2022-09-01T04:05:11.364Z,11.70
2022-09-01T04:08:02.482Z,11.92
2022-09-01T04:10:54.452Z,11.80
2022-09-01T04:13:42.473Z,11.71
2022-09-01T04:16:50.490Z,11.80
2022-09-01T04:19:39.338Z,11.75
2022-09-01T04:22:30.081Z,11.62
2022-09-01T04:25:23.015Z,11.60
2022-09-01T04:28:23.002Z,11.42
2022-09-01T04:31:18.624Z,11.48
2022-09-01T04:34:13.132Z,11.34
2022-09-01T04:37:02.422Z,11.54
2022-09-01T04:39:55.597Z,11.47
2022-09-01T04:42:42.934Z,11.55
2022-09-01T04:45:30.195Z,11.71
2022-09-01T04:48:17.421Z,11.68
2022-09-01T04:51:10.382Z,11.71
2022-09-01T04:54:14.721Z,11.70
2022-09-01T04:57:06.972Z,11.56
2022-09-01T04:59:59.788Z,11.68
2022-09-01T05:02:46.247Z,11.66
2022-09-01T05:05:43.072Z,11.65
2022-09-01T05:08:32.703Z,11.63
2022-09-01T05:11:21.114Z,11.76
2022-09-01T05:14:08.277Z,11.95
2022-09-01T05:16:58.861Z,11.94
2022-09-01T05:19:50.498Z,12.23
2022-09-01T05:22:39.275Z,12.38
2022-09-01T05:25:27.390Z,12.38
2022-09-01T05:28:17.866Z,12.57
2022-09-01T05:31:04.826Z,12.27
2022-09-01T05:33:53.102Z,12.59
2022-09-01T05:36:46.076Z,12.87
2022-09-01T05:39:33.233Z,13.03
2022-09-01T05:42:19.862Z,13.18
2022-09-01T05:45:08.443Z,13.17
2022-09-01T05:47:55.034Z,13.45
2022-09-01T05:50:46.762Z,13.52
2022-09-01T05:53:34.131Z,13.52
2022-09-01T05:56:21.091Z,13.76
2022-09-01T05:59:24.741Z,13.95
2022-09-01T06:02:15.223Z,13.89
2022-09-01T06:05:01.813Z,14.16
2022-09-01T06:07:51.986Z,14.35
2022-09-01T06:10:41.971Z,14.19
2022-09-01T06:13:28.166Z,14.46
2022-09-01T06:16:16.957Z,14.82
2022-09-01T06:19:03.623Z,14.93
2022-09-01T06:21:51.282Z,15.10
2022-09-01T06:24:39.788Z,15.36
2022-09-01T06:27:27.149Z,15.23
2022-09-01T06:30:22.574Z,15.51
2022-09-01T06:33:14.844Z,15.62
2022-09-01T06:36:09.374Z,15.77
2022-09-01T06:38:55.866Z,15.66
2022-09-01T06:41:42.225Z,15.96
2022-09-01T06:44:32.049Z,15.68
2022-09-01T06:47:24.269Z,16.04
2022-09-01T06:51:14.696Z,15.95
2022-09-01T06:53:37.265Z,15.94
2022-09-01T06:56:32.250Z,16.06
2022-09-01T06:59:20.489Z,16.19
2022-09-01T07:02:12.607Z,16.20
2022-09-01T07:08:28.710Z,16.10
2022-09-01T07:17:58.415Z,16.67
2022-09-01T07:21:05.471Z,16.67
2022-09-01T07:24:13.461Z,16.66
2022-09-01T07:27:19.894Z,16.86
2022-09-01T07:30:12.568Z,16.94
2022-09-01T07:33:41.585Z,17.06
2022-09-01T07:46:40.992Z,18.03
2022-09-01T07:49:51.400Z,18.17
2022-09-01T07:52:42.657Z,18.62
2022-09-01T07:55:31.939Z,18.73
2022-09-01T07:58:23.077Z,19.29
2022-09-01T08:01:20.710Z,19.47
2022-09-01T08:04:09.933Z,20.05
2022-09-01T08:06:57.685Z,20.08
2022-09-01T08:09:44.425Z,20.29
2022-09-01T08:12:33.584Z,20.42
2022-09-01T08:18:26.490Z,20.27
2022-09-01T08:21:13.245Z,20.43
2022-09-01T08:24:15.864Z,20.42
2022-09-01T08:27:02.514Z,20.58
2022-09-01T08:29:49.502Z,20.26
2022-09-01T08:32:37.427Z,20.57
2022-09-01T08:35:24.415Z,20.56
2022-09-01T08:38:12.826Z,20.81
2022-09-01T08:41:00.387Z,21.05
2022-09-01T08:43:57.980Z,20.86
2022-09-01T08:46:45.038Z,20.72
2022-09-01T08:49:43.872Z,20.79
2022-09-01T08:53:32.607Z,20.86
2022-09-01T08:56:19.859Z,21.04
2022-09-01T08:59:09.810Z,21.23
2022-09-01T09:02:40.145Z,21.28
2022-09-01T09:05:41.488Z,21.44
2022-09-01T09:08:40.157Z,21.39
2022-09-01T09:11:41.905Z,21.43
2022-09-01T09:14:36.573Z,21.71
2022-09-01T09:17:29.536Z,21.18
2022-09-01T09:20:15.862Z,21.01
2022-09-01T09:23:21.627Z,21.18
2022-09-01T09:26:08.409Z,21.07
2022-09-01T09:28:55.128Z,21.26
2022-09-01T09:31:49.862Z,21.25
2022-09-01T09:34:40.065Z,21.27
2022-09-01T09:37:30.418Z,21.14
2022-09-01T09:40:27.449Z,21.35
2022-09-01T09:43:16.029Z,21.20
2022-09-01T09:46:37.815Z,21.50
2022-09-01T09:49:34.881Z,21.37
2022-09-01T09:52:23.461Z,21.21
2022-09-01T09:55:29.860Z,21.63
2022-09-01T09:58:16.359Z,21.41
2022-09-01T10:01:15.206Z,21.30
2022-09-01T10:04:04.125Z,21.42
2022-09-01T10:06:50.386Z,20.94
2022-09-01T10:09:38.468Z,21.10
2022-09-01T10:12:27.137Z,20.94
2022-09-01T10:15:23.009Z,21.02
2022-09-01T10:18:29.708Z,21.16
2022-09-01T10:21:28.181Z,21.66
2022-09-01T10:24:31.736Z,21.78
2022-09-01T10:27:23.301Z,22.07
2022-09-01T10:30:20.538Z,22.47
2022-09-01T10:33:15.864Z,22.58
2022-09-01T10:36:07.984Z,22.52
2022-09-01T10:39:04.715Z,22.32
2022-09-01T10:41:59.726Z,22.61
2022-09-01T10:44:58.085Z,22.53
2022-09-01T10:47:44.916Z,22.95
2022-09-01T10:50:35.462Z,23.01
2022-09-01T10:53:34.750Z,23.15
2022-09-01T10:56:44.413Z,23.09
2022-09-01T10:59:32.785Z,23.10
2022-09-01T11:02:26.027Z,23.18
2022-09-01T11:05:16.255Z,23.24
2022-09-01T11:08:24.687Z,23.45
2022-09-01T11:11:29.701Z,23.58
2022-09-01T11:14:19.818Z,23.24
2022-09-01T11:17:21.112Z,23.60
2022-09-01T11:20:46.316Z,23.42
2022-09-01T11:23:34.411Z,23.33
2022-09-01T11:26:32.958Z,23.38
2022-09-01T11:29:51.358Z,23.62
2022-09-01T11:32:46.283Z,23.27
2022-09-01T11:35:33.644Z,23.15
2022-09-01T11:38:21.360Z,22.97
2022-09-01T11:41:07.881Z,23.00
2022-09-01T11:43:58.190Z,22.97
2022-09-01T11:46:45.344Z,22.56
2022-09-01T11:49:37.034Z,22.38
2022-09-01T11:52:27.314Z,22.33
2022-09-01T11:55:13.481Z,22.34
2022-09-01T11:58:00.610Z,22.38
2022-09-01T12:00:47.475Z,22.38
2022-09-01T12:03:36.981Z,22.53
2022-09-01T12:06:26.939Z,22.42
2022-09-01T12:09:13.127Z,22.51
2022-09-01T12:12:00.132Z,22.58
2022-09-01T12:15:07.152Z,22.76
2022-09-01T12:18:08.278Z,23.27
2022-09-01T12:21:00.139Z,23.67
2022-09-01T12:23:47.175Z,23.60
2022-09-01T12:26:33.790Z,23.68
2022-09-01T12:29:23.123Z,23.91
2022-09-01T12:32:11.129Z,23.81
2022-09-01T12:35:10.870Z,24.28
2022-09-01T12:38:21.694Z,24.42
2022-09-01T12:41:37.684Z,24.54
2022-09-01T12:44:46.644Z,24.49
2022-09-01T12:47:33.434Z,24.88
2022-09-01T12:50:19.642Z,24.99
2022-09-01T12:53:15.930Z,25.26
2022-09-01T12:56:17.876Z,25.37
2022-09-01T12:59:26.308Z,25.36
2022-09-01T13:02:38.303Z,25.54
2022-09-01T13:05:30.601Z,25.77
2022-09-01T13:08:19.894Z,25.88
2022-09-01T13:11:11.202Z,26.03
2022-09-01T13:13:58.218Z,26.00
2022-09-01T13:16:45.437Z,26.20
2022-09-01T13:19:32.260Z,26.19
2022-09-01T13:22:18.805Z,25.53
2022-09-01T13:25:05.958Z,25.59
2022-09-01T13:27:52.940Z,25.91
2022-09-01T13:30:40.364Z,25.78
2022-09-01T13:33:28.302Z,25.13
2022-09-01T13:39:22.782Z,24.12
2022-09-01T13:42:10.339Z,24.03
2022-09-01T13:44:57.001Z,23.80
2022-09-01T13:53:59.661Z,23.84
2022-09-01T13:56:46.402Z,23.88
2022-09-01T13:59:33.158Z,24.11
2022-09-01T14:02:19.737Z,24.10
2022-09-01T14:05:06.171Z,24.34
2022-09-01T14:07:53.756Z,24.41
2022-09-01T14:10:44.050Z,24.61
2022-09-01T14:13:31.477Z,24.23
2022-09-01T14:16:18.503Z,24.18
2022-09-01T14:19:05.237Z,23.71
2022-09-01T14:21:51.907Z,23.69
2022-09-01T14:24:40.827Z,23.51
2022-09-01T14:27:27.740Z,23.29
2022-09-01T14:30:19.073Z,22.96
2022-09-01T14:33:05.429Z,23.10
2022-09-01T14:35:51.819Z,22.95
2022-09-01T14:38:38.817Z,22.98
2022-09-01T14:41:27.181Z,22.97
2022-09-01T14:44:13.557Z,22.90
2022-09-01T14:47:00.239Z,23.16
2022-09-01T14:49:46.956Z,23.46
2022-09-01T14:52:34.157Z,23.47
2022-09-01T14:55:22.691Z,23.74
2022-09-01T14:58:09.078Z,23.93
2022-09-01T15:01:03.523Z,24.21
2022-09-01T15:03:54.647Z,24.30
2022-09-01T15:06:41.016Z,24.56
2022-09-01T15:09:27.462Z,24.37
2022-09-01T15:12:14.211Z,24.22
2022-09-01T15:15:01.566Z,24.50
2022-09-01T15:17:48.423Z,24.27
2022-09-01T15:20:46.188Z,24.02
2022-09-01T15:23:32.509Z,23.98
2022-09-01T15:26:19.012Z,23.89
2022-09-01T15:29:05.221Z,23.90
2022-09-01T15:31:51.687Z,23.91
2022-09-01T15:34:39.158Z,23.94
2022-09-01T15:37:25.565Z,23.83
2022-09-01T15:40:12.109Z,23.85
2022-09-01T15:42:59.495Z,23.68
2022-09-01T15:45:46.666Z,23.70
2022-09-01T15:48:33.162Z,23.91
2022-09-01T15:51:22.474Z,23.76
2022-09-01T15:54:12.222Z,23.57
2022-09-01T15:56:58.657Z,23.21
2022-09-01T15:59:45.373Z,23.32
2022-09-01T16:02:31.910Z,23.39
2022-09-01T16:05:18.778Z,23.28
2022-09-01T16:08:09.264Z,23.55
2022-09-01T16:10:55.700Z,23.56
2022-09-01T16:13:43.057Z,24.02
2022-09-01T16:16:41.584Z,23.97
2022-09-01T16:19:54.689Z,24.00
2022-09-01T16:22:53.670Z,23.73
2022-09-01T16:25:41.499Z,23.49
2022-09-01T16:28:31.574Z,23.68
2022-09-01T16:31:24.737Z,23.65
2022-09-01T16:34:18.754Z,23.48
2022-09-01T16:37:51.790Z,23.47
2022-09-01T16:40:56.326Z,23.15
2022-09-01T16:43:50.914Z,23.15
2022-09-01T16:46:49.499Z,22.88
2022-09-01T16:49:41.723Z,22.82
2022-09-01T16:52:32.658Z,22.58
2022-09-01T16:55:28.282Z,22.42
2022-09-01T16:58:24.180Z,22.06
2022-09-01T17:01:38.555Z,22.24
2022-09-01T17:04:40.430Z,22.09
2022-09-01T17:07:40.374Z,21.79
2022-09-01T17:10:42.164Z,21.75
2022-09-01T17:13:32.480Z,21.63
2022-09-01T17:16:29.301Z,21.46
2022-09-01T17:19:19.185Z,21.34
2022-09-01T17:22:14.425Z,21.19
2022-09-01T17:25:18.815Z,21.30
2022-09-01T17:28:16.609Z,21.26
2022-09-01T17:31:20.579Z,21.23
2022-09-01T17:34:27.897Z,21.02
2022-09-01T17:37:39.979Z,20.97
2022-09-01T17:40:44.884Z,20.88
2022-09-01T17:43:45.517Z,20.77
2022-09-01T17:46:38.010Z,20.61
2022-09-01T17:49:49.726Z,20.53
2022-09-01T17:52:59.537Z,20.22
2022-09-01T17:56:03.270Z,20.37
2022-09-01T17:59:16.008Z,20.34
2022-09-01T18:02:40.025Z,20.20
2022-09-01T18:05:27.646Z,20.15
2022-09-01T18:08:31.186Z,19.87
2022-09-01T18:11:33.134Z,20.01
2022-09-01T18:14:30.257Z,19.85
2022-09-01T18:17:32.152Z,19.70
2022-09-01T18:20:24.522Z,19.57
2022-09-01T18:23:18.034Z,19.21
2022-09-01T18:26:31.171Z,19.25
2022-09-01T18:29:17.902Z,18.93
2022-09-01T18:32:23.118Z,19.04
2022-09-01T18:35:26.609Z,18.86
2022-09-01T18:38:30.755Z,18.47
2022-09-01T18:41:32.062Z,18.34
2022-09-01T18:44:26.686Z,18.63
2022-09-01T18:47:15.457Z,18.58
2022-09-01T18:50:45.542Z,18.33
2022-09-01T18:53:50.731Z,18.34
2022-09-01T18:56:56.254Z,18.18
2022-09-01T18:59:48.474Z,18.20
2022-09-01T19:02:50.102Z,18.03
2022-09-01T19:05:45.897Z,17.92
2022-09-01T19:09:08.710Z,17.58
2022-09-01T19:12:01.682Z,17.58
2022-09-01T19:15:10.076Z,17.58
2022-09-01T19:18:26.142Z,17.46
2022-09-01T19:21:22.236Z,17.35
2022-09-01T19:24:20.714Z,17.25
2022-09-01T19:27:14.777Z,17.13
2022-09-01T19:30:05.695Z,17.08
2022-09-01T19:32:52.990Z,17.03
2022-09-01T19:35:42.647Z,16.99
2022-09-01T19:38:30.261Z,16.75
2022-09-01T19:41:33.077Z,16.78
2022-09-01T19:44:37.492Z,16.60
2022-09-01T19:47:26.982Z,16.62
2022-09-01T19:50:31.106Z,16.44
2022-09-01T19:53:46.909Z,16.42
2022-09-01T19:56:54.653Z,16.33
2022-09-01T19:59:52.923Z,16.21
2022-09-01T20:02:51.437Z,16.15
2022-09-01T20:05:54.978Z,15.99
2022-09-01T20:09:02.022Z,16.05
2022-09-01T20:11:55.996Z,15.76
2022-09-01T20:14:51.596Z,15.95
2022-09-01T20:17:41.717Z,15.87
2022-09-01T20:20:36.801Z,15.79
2022-09-01T20:23:50.075Z,15.83
2022-09-01T20:26:46.930Z,15.81
2022-09-01T20:29:55.650Z,15.75
2022-09-01T20:33:00.505Z,15.61
2022-09-01T20:36:12.481Z,15.54
2022-09-01T20:39:34.938Z,15.50
2022-09-01T20:42:42.836Z,15.41
2022-09-01T20:45:29.742Z,15.34
2022-09-01T20:48:24.590Z,15.44
2022-09-01T20:51:30.066Z,15.39
2022-09-01T20:54:37.655Z,15.22
2022-09-01T20:57:40.149Z,15.37
2022-09-01T21:00:29.119Z,15.39
2022-09-01T21:03:47.892Z,15.25
2022-09-01T21:06:48.849Z,15.19
2022-09-01T21:10:12.895Z,15.16
2022-09-01T21:13:33.414Z,15.01
2022-09-01T21:16:56.413Z,14.84
2022-09-01T21:20:08.565Z,14.80
2022-09-01T21:22:55.497Z,14.70
2022-09-01T21:25:45.137Z,14.81
2022-09-01T21:28:31.621Z,14.78
2022-09-01T21:31:19.286Z,14.52
2022-09-01T21:34:05.634Z,14.62
2022-09-01T21:36:52.118Z,14.52
2022-09-01T21:39:41.875Z,14.50
2022-09-01T21:42:32.855Z,14.31
2022-09-01T21:45:19.609Z,14.32
2022-09-01T21:48:06.504Z,14.37
2022-09-01T21:50:53.154Z,14.34
2022-09-01T21:53:39.309Z,14.23
2022-09-01T21:56:26.111Z,14.19
2022-09-01T21:59:16.980Z,14.31
2022-09-01T22:02:05.817Z,14.18
2022-09-01T22:04:52.442Z,14.06
2022-09-01T22:07:41.573Z,14.18
2022-09-01T22:10:29.638Z,13.87
2022-09-01T22:13:20.625Z,14.11
2022-09-01T22:16:07.309Z,13.85
2022-09-01T22:18:53.675Z,13.70
2022-09-01T22:21:41.743Z,13.90
2022-09-01T22:24:28.482Z,13.81
2022-09-01T22:27:15.017Z,13.82
2022-09-01T22:30:02.580Z,13.69
2022-09-01T22:32:49.027Z,13.69
2022-09-01T22:35:40.682Z,13.52
2022-09-01T22:38:27.157Z,13.23
2022-09-01T22:41:18.236Z,13.55
2022-09-01T22:44:06.415Z,13.50
2022-09-01T22:46:52.810Z,13.23
2022-09-01T22:49:39.269Z,13.19
2022-09-01T22:52:25.787Z,13.12
2022-09-01T22:55:13.560Z,12.95
2022-09-01T22:57:59.879Z,13.18
2022-09-01T23:00:51.521Z,13.13
2022-09-01T23:03:38.447Z,13.12
2022-09-01T23:06:28.112Z,13.06
2022-09-01T23:09:15.673Z,12.86
2022-09-01T23:12:02.135Z,12.85
2022-09-01T23:14:48.329Z,12.89
2022-09-01T23:17:37.759Z,12.92
2022-09-01T23:20:24.162Z,12.58
2022-09-01T23:23:10.462Z,12.80
2022-09-01T23:25:56.871Z,12.60
2022-09-01T23:28:44.695Z,12.57
2022-09-01T23:31:33.431Z,12.76
2022-09-01T23:34:20.039Z,12.71
2022-09-01T23:37:07.036Z,12.55
2022-09-01T23:39:53.649Z,12.51
2022-09-01T23:42:41.377Z,12.55
2022-09-01T23:45:29.573Z,12.28
2022-09-01T23:48:24.293Z,12.42
2022-09-01T23:51:11.422Z,12.48
2022-09-01T23:54:02.314Z,12.37
2022-09-01T23:56:48.974Z,12.38
2022-09-01T23:59:35.528Z,12.31
